Airport Name : Powell River

Other Name : Powell River

ICAO : CYPW

IATA : YPW

FAA :

Latitude : 49.834167

Longitude : -124.5

Country : Canada

Local Date and Time : 16 Jun 2024 17:59

 

TAF (Terminal Aerodrome Forecast)

 

METAR (METeorological Aerodrome Report)

CYPW 170000Z 26007KT 220V290 30SM FEW025 BKN067 BKN240 16/08 A2998 RMK SC1AC6CI1 SC TR TCU TOPS DIST W SLP157

CYPW 162300Z 24008KT 30SM FEW030 FEW055 BKN066 BKN170 15/08 A3000 RMK SC1SC1AC7AC1 SC TR SC TR AC TR SLP162

CYPW 162200Z 26006KT 240V300 30SM FEW025 FEW045 OVC061 15/08 A3002 RMK SC1SC1SC6 SC TR SC TR SLP168

CYPW 162100Z 25005KT 210V280 30SM FEW015 FEW030 BKN054 OVC210 14/08 A3003 RMK SC1CU1SC7CS1 SC TR CU TR SLP171